Time;durP1;ratioP1;P1;durP2;ratioP2;P2;SDS_P1;SDS_P2;PMS_P1;PMS_P2;Temp;Humidity;BMP_temperature;BMP_pressure;BME280_temperature;BME280_humidity;BME280_pressure;Samples;Min_cycle;Max_cycle;Signal;HPM_P1;HPM_P2
2023/10/01 00:00:28;;;;;;;;;;;15.60;99.90;;;;;;5157148;27;20012;-45
2023/10/01 00:02:55;;;;;;;;;;;15.60;99.90;;;;;;5156765;27;19911;-48
2023/10/01 00:05:22;;;;;;;;;;;15.60;99.90;;;;;;5157030;27;19919;-49
2023/10/01 00:07:49;;;;;;;;;;;15.60;99.90;;;;;;5157064;27;19948;-48
2023/10/01 00:10:15;;;;;;;;;;;15.60;99.90;;;;;;5157195;27;20368;-48
2023/10/01 00:12:44;;;;;;;;;;;15.50;99.90;;;;;;5156912;27;20366;-47
2023/10/01 00:15:11;;;;;;;;;;;15.40;99.90;;;;;;5156959;27;19907;-46
2023/10/01 00:17:40;;;;;;;;;;;15.40;99.90;;;;;;5151280;27;19999;-45
2023/10/01 00:20:12;;;;;;;;;;;15.40;99.90;;;;;;5136151;27;19907;-49
2023/10/01 00:22:38;;;;;;;;;;;15.30;99.90;;;;;;5135981;27;20274;-46
2023/10/01 00:25:06;;;;;;;;;;;15.20;99.90;;;;;;5135971;27;19948;-46
2023/10/01 00:27:32;;;;;;;;;;;15.20;99.90;;;;;;5135935;27;19968;-46
2023/10/01 00:29:57;;;;;;;;;;;15.10;99.90;;;;;;5135916;27;19907;-46
2023/10/01 00:32:23;;;;;;;;;;;15.10;99.90;;;;;;5136787;27;19994;-48
2023/10/01 00:34:48;;;;;;;;;;;15.10;99.90;;;;;;5135597;27;19934;-47
2023/10/01 00:37:14;;;;;;;;;;;15.10;99.90;;;;;;5155375;27;20317;-45
2023/10/01 00:39:39;;;;;;;;;;;15.10;99.90;;;;;;5156073;27;19958;-47
2023/10/01 00:42:06;;;;;;;;;;;15.10;99.90;;;;;;5156453;27;20323;-45
2023/10/01 00:44:34;;;;;;;;;;;15.10;99.90;;;;;;5156227;27;20371;-45
2023/10/01 00:47:00;;;;;;;;;;;15.10;99.90;;;;;;5156289;27;19914;-46
2023/10/01 00:49:26;;;;;;;;;;;15.10;99.90;;;;;;5156236;27;19939;-47
2023/10/01 00:51:52;;;;;;;;;;;15.10;99.90;;;;;;5156365;27;20007;-46
2023/10/01 00:54:17;;;;;;;;;;;15.10;99.90;;;;;;5141955;27;20014;-46
2023/10/01 00:56:44;;;;;;;;;;;15.10;99.90;;;;;;5135355;27;19947;-48
2023/10/01 00:59:10;;;;;;;;;;;15.10;99.90;;;;;;5135505;27;20331;-46
2023/10/01 01:01:39;;;;;;;;;;;15.10;99.90;;;;;;5135121;27;20351;-50
2023/10/01 01:04:09;;;;;;;;;;;15.00;99.90;;;;;;5135037;27;20347;-46
2023/10/01 01:06:37;;;;;;;;;;;15.00;99.90;;;;;;5135226;27;19907;-48
2023/10/01 01:09:02;;;;;;;;;;;14.90;99.90;;;;;;5136121;27;19956;-47
2023/10/01 01:11:29;;;;;;;;;;;14.90;99.90;;;;;;5134848;27;19911;-48
2023/10/01 01:13:57;;;;;;;;;;;14.90;99.90;;;;;;5134893;27;20320;-46
2023/10/01 01:16:23;;;;;;;;;;;14.90;99.90;;;;;;5134784;27;19951;-46
2023/10/01 01:18:51;;;;;;;;;;;14.90;99.90;;;;;;5134991;27;20342;-47
2023/10/01 01:21:18;;;;;;;;;;;14.90;99.90;;;;;;5135014;27;19959;-48
2023/10/01 01:23:46;;;;;;;;;;;14.80;99.90;;;;;;5134863;27;19914;-46
2023/10/01 01:26:15;;;;;;;;;;;14.80;99.90;;;;;;5134919;27;19915;-45
2023/10/01 01:28:41;;;;;;;;;;;14.80;99.90;;;;;;5147181;27;19919;-46
2023/10/01 01:31:08;;;;;;;;;;;14.80;99.90;;;;;;5138743;27;19912;-48
2023/10/01 01:33:40;;;;;;;;;;;14.80;99.90;;;;;;5134682;27;20352;-48
2023/10/01 01:36:08;;;;;;;;;;;14.80;99.90;;;;;;5134667;27;19907;-47
2023/10/01 01:38:34;;;;;;;;;;;14.80;99.90;;;;;;5134638;27;19907;-47
2023/10/01 01:41:00;;;;;;;;;;;14.80;99.90;;;;;;5134710;27;19986;-47
2023/10/01 01:43:30;;;;;;;;;;;14.90;99.90;;;;;;5147104;27;20007;-47
2023/10/01 01:46:00;;;;;;;;;;;14.80;99.90;;;;;;5155181;27;19915;-47
2023/10/01 01:48:30;;;;;;;;;;;14.80;99.90;;;;;;5155124;27;19914;-47
2023/10/01 01:50:57;;;;;;;;;;;14.90;99.90;;;;;;5153416;27;19911;-45
2023/10/01 01:53:26;;;;;;;;;;;14.90;99.90;;;;;;5155012;27;19915;-46
2023/10/01 01:55:56;;;;;;;;;;;14.90;99.90;;;;;;5155032;27;19949;-47
2023/10/01 01:58:24;;;;;;;;;;;14.90;99.90;;;;;;5154884;27;19908;-49
2023/10/01 02:01:09;;;;;;;;;;;14.90;99.90;;;;;;5155092;27;19911;-47
2023/10/01 02:03:37;;;;;;;;;;;14.90;99.90;;;;;;5154834;27;19955;-46
2023/10/01 02:06:05;;;;;;;;;;;14.90;99.90;;;;;;5138689;27;19912;-46
2023/10/01 02:08:47;;;;;;;;;;;14.90;99.90;;;;;;5133927;27;20350;-47
2023/10/01 02:11:13;;;;;;;;;;;15.00;99.90;;;;;;5134189;27;19914;-49
2023/10/01 02:13:40;;;;;;;;;;;14.90;99.90;;;;;;5134003;27;20006;-48
2023/10/01 02:19:11;;;;;;;;;;;15.00;99.90;;;;;;5133915;27;19912;-48
2023/10/01 02:21:43;;;;;;;;;;;15.00;99.90;;;;;;5113361;28;19912;-49
2023/10/01 02:24:13;;;;;;;;;;;15.00;99.90;;;;;;5113243;28;19912;-50
2023/10/01 02:26:39;;;;;;;;;;;15.00;99.90;;;;;;5113276;28;19912;-48
2023/10/01 02:29:05;;;;;;;;;;;15.00;99.90;;;;;;5123742;27;19939;-48
2023/10/01 02:31:39;;;;;;;;;;;15.00;99.90;;;;;;5133741;27;19961;-46
2023/10/01 02:34:08;;;;;;;;;;;15.00;99.90;;;;;;5133624;27;20002;-46
2023/10/01 02:36:36;;;;;;;;;;;15.10;99.90;;;;;;5133671;27;20289;-48
2023/10/01 02:39:11;;;;;;;;;;;15.10;99.90;;;;;;5133555;28;20294;-46
2023/10/01 02:41:38;;;;;;;;;;;15.00;99.90;;;;;;5133614;28;19908;-50
2023/10/01 02:44:04;;;;;;;;;;;15.00;99.90;;;;;;5133521;27;20390;-48
2023/10/01 02:46:29;;;;;;;;;;;15.00;99.90;;;;;;5133565;28;19950;-50
2023/10/01 02:48:59;;;;;;;;;;;15.10;99.90;;;;;;5133662;28;19955;-52
2023/10/01 02:51:37;;;;;;;;;;;15.00;99.90;;;;;;5133479;28;19914;-51
2023/10/01 02:54:04;;;;;;;;;;;15.10;99.90;;;;;;5133352;28;19914;-47
2023/10/01 02:56:33;;;;;;;;;;;15.10;99.90;;;;;;5133434;28;20345;-45
2023/10/01 02:59:09;;;;;;;;;;;15.10;99.90;;;;;;5133529;27;19911;-48
2023/10/01 03:01:39;;;;;;;;;;;15.10;99.90;;;;;;5133481;28;19908;-46
2023/10/01 03:04:10;;;;;;;;;;;15.10;99.90;;;;;;5133487;28;19962;-46
2023/10/01 03:06:42;;;;;;;;;;;15.10;99.90;;;;;;5133414;28;19916;-46
2023/10/01 03:09:22;;;;;;;;;;;15.10;99.90;;;;;;5133514;28;19954;-47
2023/10/01 03:11:53;;;;;;;;;;;15.10;99.90;;;;;;5133473;28;20586;-46
2023/10/01 03:14:20;;;;;;;;;;;15.10;99.90;;;;;;5133377;27;20073;-45
2023/10/01 03:16:53;;;;;;;;;;;15.10;99.90;;;;;;5133373;28;19908;-46
2023/10/01 03:19:25;;;;;;;;;;;15.10;99.90;;;;;;5133284;28;20044;-50
2023/10/01 03:24:30;;;;;;;;;;;15.10;99.90;;;;;;5133310;28;20365;-47
2023/10/01 03:26:59;;;;;;;;;;;15.10;99.90;;;;;;5135018;27;19994;-47
2023/10/01 03:29:34;;;;;;;;;;;15.10;99.90;;;;;;5132582;27;20002;-45
2023/10/01 03:34:47;;;;;;;;;;;15.10;99.90;;;;;;5136818;27;20017;-46
2023/10/01 03:37:19;;;;;;;;;;;15.10;99.90;;;;;;5137034;27;19998;-47
2023/10/01 03:39:46;;;;;;;;;;;15.10;99.90;;;;;;5136947;27;19930;-46
2023/10/01 03:42:17;;;;;;;;;;;15.10;99.90;;;;;;5141982;27;19918;-48
2023/10/01 03:47:29;;;;;;;;;;;15.10;99.90;;;;;;5157876;27;20312;-45
2023/10/01 03:49:57;;;;;;;;;;;15.10;99.90;;;;;;5157526;27;19960;-50
2023/10/01 03:52:29;;;;;;;;;;;15.10;99.90;;;;;;5157429;27;19914;-48
2023/10/01 03:57:25;;;;;;;;;;;15.10;99.90;;;;;;5156888;27;19998;-46
2023/10/01 03:59:53;;;;;;;;;;;15.20;99.90;;;;;;5157318;27;19954;-46
2023/10/01 04:02:46;;;;;;;;;;;15.10;99.90;;;;;;5157231;27;19907;-47
2023/10/01 04:07:58;;;;;;;;;;;15.20;99.90;;;;;;5157688;27;19932;-46
2023/10/01 04:12:58;;;;;;;;;;;15.20;99.90;;;;;;5156771;27;20426;-48
2023/10/01 04:15:30;;;;;;;;;;;15.10;99.90;;;;;;5156899;27;20400;-48
2023/10/01 04:20:49;;;;;;;;;;;15.20;99.90;;;;;;5157014;27;19952;-46
2023/10/01 04:23:30;;;;;;;;;;;15.20;99.90;;;;;;5156936;27;20013;-49
2023/10/01 04:25:56;;;;;;;;;;;15.20;99.90;;;;;;5154903;27;19915;-47
2023/10/01 04:28:25;;;;;;;;;;;15.20;99.90;;;;;;5136011;27;19908;-46
2023/10/01 04:30:51;;;;;;;;;;;15.10;99.90;;;;;;5136064;27;19955;-49
2023/10/01 04:33:17;;;;;;;;;;;15.10;99.90;;;;;;5133262;27;19928;-46
2023/10/01 04:35:51;;;;;;;;;;;15.10;99.90;;;;;;5133119;27;19919;-48
2023/10/01 04:38:18;;;;;;;;;;;15.10;99.90;;;;;;5135310;27;19911;-46
2023/10/01 04:40:46;;;;;;;;;;;15.10;99.90;;;;;;5135668;27;19908;-45
2023/10/01 04:43:15;;;;;;;;;;;15.20;99.90;;;;;;5135744;27;19911;-47
2023/10/01 04:45:41;;;;;;;;;;;15.10;99.90;;;;;;5135558;27;20017;-45
2023/10/01 04:48:15;;;;;;;;;;;15.20;99.90;;;;;;5135457;27;19907;-47
2023/10/01 04:50:49;;;;;;;;;;;15.10;99.90;;;;;;5135550;27;20467;-46
2023/10/01 04:53:22;;;;;;;;;;;15.10;99.90;;;;;;5135640;27;19915;-46
2023/10/01 04:56:06;;;;;;;;;;;15.10;99.90;;;;;;5135381;27;19915;-48
2023/10/01 04:58:38;;;;;;;;;;;15.20;99.90;;;;;;5137267;27;19922;-46
2023/10/01 05:01:10;;;;;;;;;;;15.10;99.90;;;;;;5136082;27;19908;-46
2023/10/01 05:03:39;;;;;;;;;;;15.10;99.90;;;;;;5135254;27;20357;-47
2023/10/01 05:06:14;;;;;;;;;;;15.10;99.90;;;;;;5135283;27;20006;-47
2023/10/01 05:08:40;;;;;;;;;;;15.20;99.90;;;;;;5135236;27;20362;-48
2023/10/01 05:11:12;;;;;;;;;;;15.10;99.90;;;;;;5135119;27;19915;-46
2023/10/01 05:13:41;;;;;;;;;;;15.10;99.90;;;;;;5134749;27;19937;-47
2023/10/01 05:16:08;;;;;;;;;;;15.10;99.90;;;;;;5134933;27;19907;-48
2023/10/01 05:18:33;;;;;;;;;;;15.20;99.90;;;;;;5127084;27;19985;-48
2023/10/01 05:20:59;;;;;;;;;;;15.10;99.90;;;;;;5143866;27;19919;-45
2023/10/01 05:23:27;;;;;;;;;;;15.10;99.90;;;;;;5143469;27;19907;-46
2023/10/01 05:25:56;;;;;;;;;;;15.10;99.90;;;;;;5141041;27;20281;-46
2023/10/01 05:28:31;;;;;;;;;;;15.20;99.90;;;;;;5142940;27;20024;-47
2023/10/01 05:31:08;;;;;;;;;;;15.10;99.90;;;;;;5143944;27;19960;-45
2023/10/01 05:33:34;;;;;;;;;;;15.20;99.90;;;;;;5142578;27;20000;-46
2023/10/01 05:36:03;;;;;;;;;;;15.20;99.90;;;;;;5143007;27;19984;-45
2023/10/01 05:38:33;;;;;;;;;;;15.20;99.90;;;;;;5141059;27;19908;-48
2023/10/01 05:41:03;;;;;;;;;;;15.20;99.90;;;;;;5143856;27;19918;-49
2023/10/01 05:43:35;;;;;;;;;;;15.10;99.90;;;;;;5138053;27;19987;-46
2023/10/01 05:46:01;;;;;;;;;;;15.20;99.90;;;;;;5142403;27;20473;-46
2023/10/01 05:48:28;;;;;;;;;;;15.10;99.90;;;;;;5144789;27;20085;-48
2023/10/01 05:50:57;;;;;;;;;;;15.10;99.90;;;;;;5142392;27;20263;-48
2023/10/01 05:53:23;;;;;;;;;;;15.10;99.90;;;;;;5142949;27;20419;-50
2023/10/01 05:55:49;;;;;;;;;;;15.10;99.90;;;;;;5142415;27;19907;-52
2023/10/01 05:58:16;;;;;;;;;;;15.10;99.90;;;;;;5135276;27;20305;-49
2023/10/01 06:00:50;;;;;;;;;;;15.20;99.90;;;;;;5141210;27;19923;-48
2023/10/01 06:03:17;;;;;;;;;;;15.10;99.90;;;;;;5144552;27;19918;-46
2023/10/01 06:05:46;;;;;;;;;;;15.10;99.90;;;;;;5140073;27;19919;-47
2023/10/01 06:08:15;;;;;;;;;;;15.10;99.90;;;;;;5142742;27;21316;-47
2023/10/01 06:11:09;;;;;;;;;;;15.10;99.90;;;;;;5136250;27;20427;-47
2023/10/01 06:13:38;;;;;;;;;;;15.10;99.90;;;;;;5126286;27;19973;-47
2023/10/01 06:16:15;;;;;;;;;;;15.10;99.90;;;;;;5134339;27;19937;-50
2023/10/01 06:18:52;;;;;;;;;;;15.10;99.90;;;;;;5138170;27;19923;-46
2023/10/01 06:21:18;;;;;;;;;;;15.10;99.90;;;;;;5133939;27;20382;-47
2023/10/01 06:23:49;;;;;;;;;;;15.10;99.90;;;;;;5142545;27;19910;-47
2023/10/01 06:27:06;;;;;;;;;;;15.10;99.90;;;;;;5145215;27;19983;-49
2023/10/01 06:29:11;;;;;;;;;;;15.20;99.90;;;;;;5115369;27;19911;-48
2023/10/01 06:34:23;;;;;;;;;;;15.20;99.90;;;;;;5140073;27;19984;-46
2023/10/01 06:36:58;;;;;;;;;;;15.30;99.90;;;;;;5140208;27;20347;-48
2023/10/01 06:39:24;;;;;;;;;;;15.20;99.90;;;;;;5134736;27;19918;-49
2023/10/01 06:41:52;;;;;;;;;;;15.30;99.90;;;;;;5141171;27;19907;-45
2023/10/01 06:44:19;;;;;;;;;;;15.30;99.90;;;;;;5154378;27;19911;-46
2023/10/01 06:46:45;;;;;;;;;;;15.40;99.90;;;;;;5143155;27;19916;-45
2023/10/01 06:49:10;;;;;;;;;;;15.40;99.90;;;;;;5133726;28;19953;-46
2023/10/01 06:51:45;;;;;;;;;;;15.40;99.90;;;;;;5133459;28;19991;-45
2023/10/01 06:54:11;;;;;;;;;;;15.40;99.90;;;;;;5145938;27;19918;-47
2023/10/01 06:56:38;;;;;;;;;;;15.40;99.90;;;;;;5133731;28;19908;-46
2023/10/01 07:01:42;;;;;;;;;;;15.40;99.90;;;;;;5144431;27;19970;-47
2023/10/01 07:04:11;;;;;;;;;;;15.40;99.90;;;;;;5147424;27;19918;-48
2023/10/01 07:06:37;;;;;;;;;;;15.40;99.90;;;;;;5146635;27;19951;-46
2023/10/01 07:09:07;;;;;;;;;;;15.30;99.90;;;;;;5144438;27;19911;-49
2023/10/01 07:11:33;;;;;;;;;;;15.40;99.90;;;;;;5139415;27;19958;-45
2023/10/01 07:14:03;;;;;;;;;;;15.40;99.90;;;;;;5145556;27;19914;-45
2023/10/01 07:16:35;;;;;;;;;;;15.30;99.90;;;;;;5137896;27;20309;-47
2023/10/01 07:19:04;;;;;;;;;;;15.30;99.90;;;;;;5143899;27;19915;-48
2023/10/01 07:21:31;;;;;;;;;;;15.30;99.90;;;;;;5144774;27;20274;-49
2023/10/01 07:23:58;;;;;;;;;;;15.40;99.90;;;;;;5134280;27;19911;-46
2023/10/01 07:26:23;;;;;;;;;;;15.30;99.90;;;;;;5145411;27;20365;-48
2023/10/01 07:28:55;;;;;;;;;;;15.30;99.90;;;;;;5147254;27;19919;-46
2023/10/01 07:31:24;;;;;;;;;;;15.40;99.90;;;;;;5150475;27;19914;-50
2023/10/01 07:33:53;;;;;;;;;;;15.40;99.90;;;;;;5141171;27;19938;-45
2023/10/01 07:36:20;;;;;;;;;;;15.40;99.90;;;;;;5149509;27;20382;-48
2023/10/01 07:38:56;;;;;;;;;;;15.50;99.90;;;;;;5132217;27;20393;-46
2023/10/01 07:41:23;;;;;;;;;;;15.50;99.90;;;;;;5141446;27;20314;-45
2023/10/01 07:43:49;;;;;;;;;;;15.60;99.90;;;;;;5146352;27;19908;-48
2023/10/01 07:46:15;;;;;;;;;;;15.60;99.90;;;;;;5142721;27;20286;-46
2023/10/01 07:48:47;;;;;;;;;;;15.70;99.90;;;;;;5135296;27;20006;-46
2023/10/01 07:51:22;;;;;;;;;;;15.70;99.90;;;;;;5136823;27;20029;-46
2023/10/01 07:53:52;;;;;;;;;;;15.70;99.90;;;;;;5139893;27;19994;-47
2023/10/01 07:56:18;;;;;;;;;;;15.70;99.90;;;;;;5152501;27;20002;-48
2023/10/01 07:58:47;;;;;;;;;;;15.80;99.90;;;;;;5136591;27;19936;-44
2023/10/01 08:03:57;;;;;;;;;;;15.80;99.90;;;;;;5148250;27;20274;-45
2023/10/01 08:06:30;;;;;;;;;;;15.90;99.90;;;;;;5148898;27;19916;-49
2023/10/01 08:08:57;;;;;;;;;;;16.00;99.90;;;;;;5135421;27;20369;-47
2023/10/01 08:14:08;;;;;;;;;;;16.10;99.90;;;;;;5133237;27;19914;-46
2023/10/01 08:16:47;;;;;;;;;;;16.20;99.90;;;;;;5144058;27;19907;-46
2023/10/01 08:19:20;;;;;;;;;;;16.20;99.90;;;;;;5154229;27;20002;-45
2023/10/01 08:21:50;;;;;;;;;;;16.20;99.90;;;;;;5136509;27;19951;-46
2023/10/01 08:24:19;;;;;;;;;;;16.30;99.90;;;;;;5136255;27;19927;-50
2023/10/01 08:26:58;;;;;;;;;;;16.30;99.90;;;;;;5131258;27;19969;-45
2023/10/01 08:29:28;;;;;;;;;;;16.30;99.90;;;;;;5138818;27;19950;-45
2023/10/01 08:34:22;;;;;;;;;;;16.40;99.90;;;;;;5140380;27;20036;-47
2023/10/01 08:36:55;;;;;;;;;;;16.40;99.90;;;;;;5144805;27;19973;-48
2023/10/01 08:42:12;;;;;;;;;;;16.50;99.90;;;;;;5143822;27;19918;-46
2023/10/01 08:44:46;;;;;;;;;;;16.60;99.90;;;;;;5143856;27;19977;-46
2023/10/01 08:47:27;;;;;;;;;;;16.60;99.90;;;;;;5145370;27;19990;-47
2023/10/01 08:49:55;;;;;;;;;;;16.70;99.90;;;;;;5140856;27;20445;-45
2023/10/01 08:52:25;;;;;;;;;;;16.70;99.90;;;;;;5129061;27;19911;-46
2023/10/01 08:54:53;;;;;;;;;;;16.80;99.90;;;;;;5143328;27;19915;-46
2023/10/01 08:57:36;;;;;;;;;;;16.90;99.90;;;;;;5142628;27;19946;-47
2023/10/01 09:00:20;;;;;;;;;;;17.00;99.90;;;;;;5126625;27;20304;-46
2023/10/01 09:02:50;;;;;;;;;;;17.10;99.90;;;;;;5143998;27;19976;-46
2023/10/01 09:05:23;;;;;;;;;;;17.20;99.90;;;;;;5127708;27;20482;-47
2023/10/01 09:07:50;;;;;;;;;;;17.20;99.90;;;;;;5152345;27;19915;-46
2023/10/01 09:10:18;;;;;;;;;;;17.30;99.90;;;;;;5149674;27;20377;-47
2023/10/01 09:12:46;;;;;;;;;;;17.40;99.90;;;;;;5136465;27;19907;-46
2023/10/01 09:15:21;;;;;;;;;;;17.40;99.90;;;;;;5155456;27;19960;-46
2023/10/01 09:17:56;;;;;;;;;;;17.50;99.90;;;;;;5155825;27;20400;-46
2023/10/01 09:21:06;;;;;;;;;;;17.60;99.90;;;;;;5145182;27;19915;-46
2023/10/01 09:23:56;;;;;;;;;;;17.70;99.90;;;;;;5102073;27;20314;-46
2023/10/01 09:26:53;;;;;;;;;;;17.80;99.90;;;;;;5140470;27;19989;-46
2023/10/01 09:29:25;;;;;;;;;;;18.00;99.90;;;;;;5127740;27;20001;-47
2023/10/01 09:31:56;;;;;;;;;;;18.10;99.90;;;;;;5142161;27;20301;-45
2023/10/01 09:34:33;;;;;;;;;;;18.20;99.90;;;;;;5130524;27;20002;-47
2023/10/01 09:37:02;;;;;;;;;;;18.30;99.90;;;;;;5122069;27;19912;-46
2023/10/01 09:39:36;;;;;;;;;;;18.40;99.90;;;;;;5117837;27;19912;-45
2023/10/01 09:42:19;;;;;;;;;;;18.50;99.90;;;;;;5122511;27;20121;-49
2023/10/01 09:44:46;;;;;;;;;;;18.50;99.90;;;;;;5120517;27;20316;-46
2023/10/01 09:47:12;;;;;;;;;;;18.50;99.90;;;;;;5121376;27;19918;-46
2023/10/01 09:49:38;;;;;;;;;;;18.50;99.90;;;;;;5133254;27;20013;-47
2023/10/01 09:52:04;;;;;;;;;;;18.50;99.90;;;;;;5124682;27;20006;-47
2023/10/01 09:54:41;;;;;;;;;;;18.60;99.90;;;;;;5126794;27;19921;-48
2023/10/01 09:57:08;;;;;;;;;;;18.60;99.90;;;;;;5123411;27;20018;-45
2023/10/01 09:59:39;;;;;;;;;;;18.80;99.90;;;;;;5124890;27;19908;-46
2023/10/01 10:02:04;;;;;;;;;;;18.90;99.90;;;;;;5105690;28;20382;-46
2023/10/01 10:04:34;;;;;;;;;;;19.00;99.90;;;;;;5118897;27;19924;-45
2023/10/01 10:07:01;;;;;;;;;;;19.00;99.90;;;;;;5106727;27;19998;-46
2023/10/01 10:09:28;;;;;;;;;;;19.00;99.90;;;;;;5121466;27;19911;-46
2023/10/01 10:11:54;;;;;;;;;;;19.00;99.90;;;;;;5111736;28;19908;-47
2023/10/01 10:14:26;;;;;;;;;;;18.90;99.90;;;;;;5093617;28;19947;-45
2023/10/01 10:16:58;;;;;;;;;;;18.90;99.90;;;;;;5106465;28;19907;-48
2023/10/01 10:19:24;;;;;;;;;;;18.90;99.90;;;;;;5114024;28;20409;-48
2023/10/01 10:24:34;;;;;;;;;;;18.80;99.90;;;;;;5113860;28;20329;-46
2023/10/01 10:27:09;;;;;;;;;;;18.80;99.90;;;;;;5114209;28;19986;-46
2023/10/01 10:29:46;;;;;;;;;;;18.90;99.90;;;;;;5114092;28;20008;-46
2023/10/01 10:32:16;;;;;;;;;;;19.00;99.90;;;;;;5113415;28;19923;-45
2023/10/01 10:35:03;;;;;;;;;;;19.00;99.90;;;;;;5093107;28;19928;-49
2023/10/01 10:37:34;;;;;;;;;;;19.10;99.90;;;;;;5092790;28;19908;-45
2023/10/01 10:40:13;;;;;;;;;;;19.20;99.90;;;;;;5092656;28;20387;-49
2023/10/01 10:42:46;;;;;;;;;;;19.30;99.90;;;;;;5126563;28;19935;-46
2023/10/01 10:45:21;;;;;;;;;;;19.30;99.90;;;;;;5113005;28;19920;-46
2023/10/01 10:48:02;;;;;;;;;;;19.50;99.90;;;;;;5126194;28;19916;-47
2023/10/01 10:50:45;;;;;;;;;;;19.60;99.90;;;;;;5130489;28;19923;-46
2023/10/01 10:53:21;;;;;;;;;;;19.70;99.90;;;;;;5111175;28;19911;-45
2023/10/01 10:55:53;;;;;;;;;;;19.80;99.90;;;;;;5113222;28;20339;-47
2023/10/01 10:58:20;;;;;;;;;;;19.80;99.90;;;;;;5113739;28;19907;-46
2023/10/01 11:00:48;;;;;;;;;;;19.80;99.90;;;;;;5113417;28;19918;-46
2023/10/01 11:03:16;;;;;;;;;;;19.90;99.90;;;;;;5113688;28;19907;-48
2023/10/01 11:05:51;;;;;;;;;;;19.90;99.90;;;;;;5113151;28;19967;-47
2023/10/01 11:08:25;;;;;;;;;;;20.00;99.90;;;;;;5113508;28;20223;-51
2023/10/01 11:10:54;;;;;;;;;;;20.00;99.90;;;;;;5116842;28;19911;-45
2023/10/01 11:13:36;;;;;;;;;;;20.00;99.90;;;;;;5133773;28;19938;-46
2023/10/01 11:16:13;;;;;;;;;;;20.00;99.90;;;;;;5133786;28;19907;-46
2023/10/01 11:18:47;;;;;;;;;;;19.90;99.90;;;;;;5113047;28;19915;-48
2023/10/01 11:21:24;;;;;;;;;;;20.00;99.90;;;;;;5111432;28;19919;-47
2023/10/01 11:24:00;;;;;;;;;;;20.00;99.90;;;;;;5104142;28;19965;-48
2023/10/01 11:26:26;;;;;;;;;;;20.00;99.90;;;;;;5111943;28;20434;-46
2023/10/01 11:28:52;;;;;;;;;;;20.10;99.90;;;;;;5112420;28;20003;-46
2023/10/01 11:31:22;;;;;;;;;;;20.20;99.90;;;;;;5111895;28;19999;-44
2023/10/01 11:34:06;;;;;;;;;;;20.30;99.90;;;;;;5098881;28;20006;-48
2023/10/01 11:36:35;;;;;;;;;;;20.40;99.90;;;;;;5146088;27;19926;-48
2023/10/01 11:39:06;;;;;;;;;;;20.40;99.90;;;;;;5133812;28;19915;-46
2023/10/01 11:41:41;;;;;;;;;;;20.50;99.90;;;;;;5144221;27;19914;-46
2023/10/01 11:44:08;;;;;;;;;;;20.50;99.90;;;;;;5141758;27;19912;-47
2023/10/01 11:46:57;;;;;;;;;;;20.50;99.90;;;;;;5152302;27;19911;-46
2023/10/01 11:49:34;;;;;;;;;;;20.50;99.90;;;;;;5142902;27;19922;-47
2023/10/01 11:52:16;;;;;;;;;;;20.60;99.90;;;;;;5157923;27;20440;-46
2023/10/01 11:54:45;;;;;;;;;;;20.60;99.90;;;;;;5158149;27;19930;-46
2023/10/01 11:57:35;;;;;;;;;;;20.60;99.90;;;;;;5158278;27;19908;-46
2023/10/01 11:59:58;;;;;;;;;;;20.70;99.90;;;;;;5157320;27;19907;-46
2023/10/01 12:02:25;;;;;;;;;;;20.70;99.90;;;;;;5157890;27;19907;-47
2023/10/01 12:04:56;;;;;;;;;;;20.80;99.90;;;;;;5157844;27;19961;-46
2023/10/01 12:07:23;;;;;;;;;;;20.90;99.90;;;;;;5157900;27;19983;-47
2023/10/01 12:09:49;;;;;;;;;;;21.00;99.90;;;;;;5139074;27;19918;-46
2023/10/01 12:12:15;;;;;;;;;;;21.10;99.90;;;;;;5134055;27;19947;-45
2023/10/01 12:14:54;;;;;;;;;;;21.10;99.90;;;;;;5134081;27;19922;-46
2023/10/01 12:17:25;;;;;;;;;;;21.30;99.90;;;;;;5135431;27;22234;-47
2023/10/01 12:19:51;;;;;;;;;;;21.30;99.90;;;;;;5138095;27;19912;-46
2023/10/01 12:22:16;;;;;;;;;;;21.40;99.90;;;;;;5138299;27;19919;-46
2023/10/01 12:24:44;;;;;;;;;;;21.40;99.90;;;;;;5139222;27;19923;-49
2023/10/01 12:27:11;;;;;;;;;;;21.40;99.90;;;;;;5135437;27;20377;-45
2023/10/01 12:29:48;;;;;;;;;;;21.40;99.90;;;;;;5137760;27;20431;-47
2023/10/01 12:32:14;;;;;;;;;;;21.40;99.90;;;;;;5136483;27;19911;-46
2023/10/01 12:34:42;;;;;;;;;;;21.30;99.90;;;;;;5137910;27;20022;-46
2023/10/01 12:37:35;;;;;;;;;;;21.30;99.90;;;;;;5144835;27;19919;-44
2023/10/01 12:40:14;;;;;;;;;;;21.30;99.90;;;;;;5144261;27;19916;-46
2023/10/01 12:42:39;;;;;;;;;;;21.40;99.90;;;;;;5142292;27;19935;-45
2023/10/01 12:45:14;;;;;;;;;;;21.40;99.90;;;;;;5146127;27;20381;-45
2023/10/01 12:47:50;;;;;;;;;;;21.50;99.90;;;;;;5141498;27;19955;-46
2023/10/01 12:50:26;;;;;;;;;;;21.50;99.90;;;;;;5141519;27;19990;-45
2023/10/01 12:53:17;;;;;;;;;;;21.50;99.90;;;;;;5139298;27;19911;-45
2023/10/01 12:55:39;;;;;;;;;;;21.50;99.90;;;;;;5134109;27;19911;-45
2023/10/01 12:58:05;;;;;;;;;;;21.60;99.90;;;;;;5128958;27;20955;-46
2023/10/01 13:00:46;;;;;;;;;;;21.60;99.90;;;;;;5118940;27;19919;-46
2023/10/01 13:03:16;;;;;;;;;;;21.70;99.90;;;;;;5123299;27;20001;-46
2023/10/01 13:05:44;;;;;;;;;;;21.70;99.90;;;;;;5144977;27;19923;-49
2023/10/01 13:08:11;;;;;;;;;;;21.70;99.90;;;;;;5152908;27;19914;-45
2023/10/01 13:10:37;;;;;;;;;;;21.80;99.90;;;;;;5139504;27;19912;-46
2023/10/01 13:13:05;;;;;;;;;;;22.00;99.90;;;;;;5139291;27;19911;-48
2023/10/01 13:15:33;;;;;;;;;;;22.30;99.90;;;;;;5118872;27;19915;-47
2023/10/01 13:18:00;;;;;;;;;;;22.40;99.90;;;;;;5117581;27;19912;-46
2023/10/01 13:20:28;;;;;;;;;;;22.70;99.90;;;;;;5115150;28;19912;-44
2023/10/01 13:23:06;;;;;;;;;;;23.00;99.90;;;;;;5125186;27;19912;-49
2023/10/01 13:25:33;;;;;;;;;;;23.20;99.90;;;;;;5152257;27;19972;-44
2023/10/01 13:28:01;;;;;;;;;;;23.40;99.90;;;;;;5123407;27;19914;-44
2023/10/01 13:30:30;;;;;;;;;;;23.30;99.90;;;;;;5154505;27;20010;-44
2023/10/01 13:33:14;;;;;;;;;;;23.40;99.90;;;;;;5155110;27;20405;-45
2023/10/01 13:35:58;;;;;;;;;;;23.40;99.90;;;;;;5139797;27;19920;-46
2023/10/01 14:11:01;;;;;;;;;;;22.90;99.90;;;;;;5094151;28;19983;-46
2023/10/01 14:13:34;;;;;;;;;;;23.20;99.90;;;;;;5099574;28;19908;-47
2023/10/01 14:16:17;;;;;;;;;;;23.40;99.90;;;;;;5113623;28;19965;-45
2023/10/01 14:18:54;;;;;;;;;;;23.60;99.90;;;;;;5113263;28;20306;-46
2023/10/01 14:21:22;;;;;;;;;;;23.60;99.90;;;;;;5107274;28;19962;-48
2023/10/01 14:23:49;;;;;;;;;;;23.40;99.90;;;;;;5110399;28;19911;-45
2023/10/01 14:26:20;;;;;;;;;;;23.20;99.90;;;;;;5102818;28;19959;-46
2023/10/01 14:28:46;;;;;;;;;;;23.00;99.90;;;;;;5113869;28;19908;-46
2023/10/01 14:31:13;;;;;;;;;;;22.90;99.90;;;;;;5114037;28;19995;-48
2023/10/01 14:33:40;;;;;;;;;;;22.70;99.90;;;;;;5113619;28;19961;-45
2023/10/01 14:36:06;;;;;;;;;;;22.60;99.90;;;;;;5123153;27;19947;-46
2023/10/01 14:38:39;;;;;;;;;;;22.50;99.90;;;;;;5134124;27;19966;-45
2023/10/01 14:41:10;;;;;;;;;;;22.40;99.90;;;;;;5140460;27;20346;-46
2023/10/01 14:43:48;;;;;;;;;;;22.30;99.90;;;;;;5113838;27;19947;-46
2023/10/01 14:46:17;;;;;;;;;;;22.20;99.90;;;;;;5152127;27;19918;-46
2023/10/01 14:48:46;;;;;;;;;;;22.10;99.90;;;;;;5154348;27;20898;-46
2023/10/01 14:51:25;;;;;;;;;;;22.10;99.90;;;;;;5154988;27;20282;-48
2023/10/01 14:53:54;;;;;;;;;;;22.10;99.90;;;;;;5154492;27;19911;-46
2023/10/01 14:56:23;;;;;;;;;;;22.00;99.90;;;;;;5153392;27;20006;-44
2023/10/01 14:58:51;;;;;;;;;;;22.00;99.90;;;;;;5154236;27;19947;-50
2023/10/01 15:01:19;;;;;;;;;;;22.00;99.90;;;;;;5154101;27;19960;-45
2023/10/01 15:03:53;;;;;;;;;;;22.00;99.90;;;;;;5139138;27;19954;-48
2023/10/01 15:06:20;;;;;;;;;;;22.10;99.90;;;;;;5131997;28;19926;-45
2023/10/01 15:08:45;;;;;;;;;;;22.10;99.90;;;;;;5132551;27;19919;-45
2023/10/01 15:11:11;;;;;;;;;;;22.20;99.90;;;;;;5129648;27;20263;-46
2023/10/01 15:13:38;;;;;;;;;;;22.10;99.90;;;;;;5112591;28;19907;-46
2023/10/01 15:16:04;;;;;;;;;;;22.10;99.90;;;;;;5123630;27;19994;-45
2023/10/01 15:18:32;;;;;;;;;;;22.20;99.90;;;;;;5152590;27;20349;-44
2023/10/01 15:20:59;;;;;;;;;;;22.60;99.90;;;;;;5133297;27;19915;-47
2023/10/01 15:23:25;;;;;;;;;;;22.80;99.90;;;;;;5135194;27;19982;-45
2023/10/01 15:25:50;;;;;;;;;;;23.00;99.90;;;;;;5137789;27;20087;-45
2023/10/01 15:28:16;;;;;;;;;;;23.00;99.90;;;;;;5136751;27;19912;-46
2023/10/01 15:30:45;;;;;;;;;;;23.10;99.90;;;;;;5137118;27;20362;-45
2023/10/01 15:33:15;;;;;;;;;;;23.30;99.90;;;;;;5137003;27;19907;-49
2023/10/01 15:35:43;;;;;;;;;;;23.50;99.90;;;;;;5135966;27;20465;-46
2023/10/01 15:38:09;;;;;;;;;;;23.90;99.90;;;;;;5134148;27;19912;-46
2023/10/01 15:40:38;;;;;;;;;;;24.30;99.90;;;;;;5117509;27;19979;-48
2023/10/01 15:43:04;;;;;;;;;;;24.50;99.90;;;;;;5133456;27;19957;-46
2023/10/01 15:45:30;;;;;;;;;;;24.40;99.90;;;;;;5135917;27;19919;-47
2023/10/01 15:47:58;;;;;;;;;;;24.00;99.90;;;;;;5126493;27;19912;-45